sensor_id;sensor_type;location;lat;lon;timestamp;temperature;humidity
5130;DHT22;2583;50.946;6.954;2022-12-17T00:02:02;0.60;99.90
5130;DHT22;2583;50.946;6.954;2022-12-17T00:04:48;0.60;99.90
5130;DHT22;2583;50.946;6.954;2022-12-17T00:07:33;0.60;99.90
5130;DHT22;2583;50.946;6.954;2022-12-17T00:10:21;0.60;99.90
5130;DHT22;2583;50.946;6.954;2022-12-17T00:13:20;0.70;99.90
5130;DHT22;2583;50.946;6.954;2022-12-17T00:16:10;0.60;99.90
5130;DHT22;2583;50.946;6.954;2022-12-17T00:18:55;0.60;99.90
5130;DHT22;2583;50.946;6.954;2022-12-17T00:21:41;0.70;99.90
5130;DHT22;2583;50.946;6.954;2022-12-17T00:24:26;0.70;99.90
5130;DHT22;2583;50.946;6.954;2022-12-17T00:27:11;0.70;99.90
5130;DHT22;2583;50.946;6.954;2022-12-17T00:29:56;0.60;99.90
5130;DHT22;2583;50.946;6.954;2022-12-17T00:32:42;0.50;99.90
5130;DHT22;2583;50.946;6.954;2022-12-17T00:35:27;0.50;99.90
5130;DHT22;2583;50.946;6.954;2022-12-17T00:38:17;0.50;99.90
5130;DHT22;2583;50.946;6.954;2022-12-17T00:41:03;0.40;99.90
5130;DHT22;2583;50.946;6.954;2022-12-17T00:43:48;0.30;99.90
5130;DHT22;2583;50.946;6.954;2022-12-17T00:46:33;0.30;99.90
5130;DHT22;2583;50.946;6.954;2022-12-17T00:49:19;0.30;99.90
5130;DHT22;2583;50.946;6.954;2022-12-17T00:52:04;0.30;99.90
5130;DHT22;2583;50.946;6.954;2022-12-17T00:54:50;0.40;99.90
5130;DHT22;2583;50.946;6.954;2022-12-17T00:57:35;0.40;99.90
5130;DHT22;2583;50.946;6.954;2022-12-17T01:00:21;0.30;99.90
5130;DHT22;2583;50.946;6.954;2022-12-17T01:03:10;0.30;99.90
5130;DHT22;2583;50.946;6.954;2022-12-17T01:06:00;0.30;99.90
5130;DHT22;2583;50.946;6.954;2022-12-17T01:08:45;0.40;99.90
5130;DHT22;2583;50.946;6.954;2022-12-17T01:11:30;0.20;99.90
5130;DHT22;2583;50.946;6.954;2022-12-17T01:14:15;0.20;99.90
5130;DHT22;2583;50.946;6.954;2022-12-17T01:17:01;0.10;99.90
5130;DHT22;2583;50.946;6.954;2022-12-17T01:19:46;0.10;99.90
5130;DHT22;2583;50.946;6.954;2022-12-17T01:22:31;0.10;99.90
5130;DHT22;2583;50.946;6.954;2022-12-17T01:25:17;0.30;99.90
5130;DHT22;2583;50.946;6.954;2022-12-17T01:28:02;0.40;99.90
5130;DHT22;2583;50.946;6.954;2022-12-17T01:30:48;0.40;99.90
5130;DHT22;2583;50.946;6.954;2022-12-17T01:33:33;0.40;99.90
5130;DHT22;2583;50.946;6.954;2022-12-17T01:36:18;0.30;99.90
5130;DHT22;2583;50.946;6.954;2022-12-17T01:39:04;0.20;99.90
5130;DHT22;2583;50.946;6.954;2022-12-17T01:41:50;0.20;99.90
5130;DHT22;2583;50.946;6.954;2022-12-17T01:44:51;0.00;99.90
5130;DHT22;2583;50.946;6.954;2022-12-17T01:50:45;0.00;99.90
5130;DHT22;2583;50.946;6.954;2022-12-17T01:53:39;0.00;99.90
5130;DHT22;2583;50.946;6.954;2022-12-17T01:56:25;0.00;99.90
5130;DHT22;2583;50.946;6.954;2022-12-17T01:59:11;0.00;99.90
5130;DHT22;2583;50.946;6.954;2022-12-17T02:01:57;0.00;99.90
5130;DHT22;2583;50.946;6.954;2022-12-17T02:04:43;0.00;99.90
5130;DHT22;2583;50.946;6.954;2022-12-17T02:14:19;-0.10;99.90
5130;DHT22;2583;50.946;6.954;2022-12-17T02:17:11;-0.10;99.90
5130;DHT22;2583;50.946;6.954;2022-12-17T02:26:42;-0.10;99.90
5130;DHT22;2583;50.946;6.954;2022-12-17T02:29:34;-0.30;99.90
5130;DHT22;2583;50.946;6.954;2022-12-17T02:32:23;-0.30;99.90
5130;DHT22;2583;50.946;6.954;2022-12-17T02:35:31;-0.30;99.90
5130;DHT22;2583;50.946;6.954;2022-12-17T02:38:21;-0.30;99.90
5130;DHT22;2583;50.946;6.954;2022-12-17T02:41:09;-0.40;99.90
5130;DHT22;2583;50.946;6.954;2022-12-17T02:43:57;-0.40;99.90
5130;DHT22;2583;50.946;6.954;2022-12-17T02:46:44;-0.40;99.90
5130;DHT22;2583;50.946;6.954;2022-12-17T02:49:30;-0.50;99.90
5130;DHT22;2583;50.946;6.954;2022-12-17T02:52:17;-0.50;99.90
5130;DHT22;2583;50.946;6.954;2022-12-17T02:55:04;-0.60;99.90
5130;DHT22;2583;50.946;6.954;2022-12-17T02:57:50;-0.60;99.90
5130;DHT22;2583;50.946;6.954;2022-12-17T03:00:35;-0.60;99.90
5130;DHT22;2583;50.946;6.954;2022-12-17T03:03:21;-0.60;99.90
5130;DHT22;2583;50.946;6.954;2022-12-17T03:06:12;-0.50;99.90
5130;DHT22;2583;50.946;6.954;2022-12-17T03:08:58;-0.50;99.90
5130;DHT22;2583;50.946;6.954;2022-12-17T03:11:44;-0.50;99.90
5130;DHT22;2583;50.946;6.954;2022-12-17T03:14:29;-0.60;99.90
5130;DHT22;2583;50.946;6.954;2022-12-17T03:17:14;-0.70;99.90
5130;DHT22;2583;50.946;6.954;2022-12-17T03:19:59;-0.70;99.90
5130;DHT22;2583;50.946;6.954;2022-12-17T03:22:45;-0.70;99.90
5130;DHT22;2583;50.946;6.954;2022-12-17T03:25:30;-0.60;99.90
5130;DHT22;2583;50.946;6.954;2022-12-17T03:28:15;-0.60;99.90
5130;DHT22;2583;50.946;6.954;2022-12-17T03:31:01;-0.50;99.90
5130;DHT22;2583;50.946;6.954;2022-12-17T03:33:46;-0.50;99.90
5130;DHT22;2583;50.946;6.954;2022-12-17T03:36:32;-0.50;99.90
5130;DHT22;2583;50.946;6.954;2022-12-17T03:39:17;-0.50;99.90
5130;DHT22;2583;50.946;6.954;2022-12-17T03:42:03;-0.50;99.90
5130;DHT22;2583;50.946;6.954;2022-12-17T03:44:48;-0.60;99.90
5130;DHT22;2583;50.946;6.954;2022-12-17T03:47:33;-0.80;99.90
5130;DHT22;2583;50.946;6.954;2022-12-17T03:50:19;-0.80;99.90
5130;DHT22;2583;50.946;6.954;2022-12-17T03:53:04;-0.80;99.90
5130;DHT22;2583;50.946;6.954;2022-12-17T03:55:50;-0.80;99.90
5130;DHT22;2583;50.946;6.954;2022-12-17T03:58:35;-0.80;99.90
5130;DHT22;2583;50.946;6.954;2022-12-17T04:01:21;-0.90;99.90
5130;DHT22;2583;50.946;6.954;2022-12-17T04:04:06;-0.90;99.90
5130;DHT22;2583;50.946;6.954;2022-12-17T04:06:51;-0.80;99.90
5130;DHT22;2583;50.946;6.954;2022-12-17T04:09:37;-0.80;99.90
5130;DHT22;2583;50.946;6.954;2022-12-17T04:12:22;-0.80;99.90
5130;DHT22;2583;50.946;6.954;2022-12-17T04:15:08;-0.80;99.90
5130;DHT22;2583;50.946;6.954;2022-12-17T04:17:53;-0.80;99.90
5130;DHT22;2583;50.946;6.954;2022-12-17T04:20:39;-0.90;99.90
5130;DHT22;2583;50.946;6.954;2022-12-17T04:23:24;-0.90;99.90
5130;DHT22;2583;50.946;6.954;2022-12-17T04:26:10;-1.00;99.90
5130;DHT22;2583;50.946;6.954;2022-12-17T04:28:55;-1.10;99.90
5130;DHT22;2583;50.946;6.954;2022-12-17T04:31:40;-1.20;99.90
5130;DHT22;2583;50.946;6.954;2022-12-17T04:34:26;-1.10;99.90
5130;DHT22;2583;50.946;6.954;2022-12-17T04:37:11;-1.10;99.90
5130;DHT22;2583;50.946;6.954;2022-12-17T04:39:57;-1.30;99.90
5130;DHT22;2583;50.946;6.954;2022-12-17T04:42:42;-1.20;99.90
5130;DHT22;2583;50.946;6.954;2022-12-17T04:45:27;-1.20;99.90
5130;DHT22;2583;50.946;6.954;2022-12-17T04:48:12;-1.30;99.90
5130;DHT22;2583;50.946;6.954;2022-12-17T04:50:58;-1.40;99.90
5130;DHT22;2583;50.946;6.954;2022-12-17T04:53:43;-1.40;99.90
5130;DHT22;2583;50.946;6.954;2022-12-17T04:56:28;-1.40;99.90
5130;DHT22;2583;50.946;6.954;2022-12-17T04:59:14;-1.50;99.90
5130;DHT22;2583;50.946;6.954;2022-12-17T05:02:00;-1.60;99.90
5130;DHT22;2583;50.946;6.954;2022-12-17T05:04:45;-1.70;99.90
5130;DHT22;2583;50.946;6.954;2022-12-17T05:07:31;-1.70;99.90
5130;DHT22;2583;50.946;6.954;2022-12-17T05:10:16;-1.70;99.90
5130;DHT22;2583;50.946;6.954;2022-12-17T05:13:02;-1.70;99.90
5130;DHT22;2583;50.946;6.954;2022-12-17T05:15:47;-1.60;99.90
5130;DHT22;2583;50.946;6.954;2022-12-17T05:18:32;-1.70;99.90
5130;DHT22;2583;50.946;6.954;2022-12-17T05:21:18;-1.80;99.90
5130;DHT22;2583;50.946;6.954;2022-12-17T05:24:03;-1.80;99.90
5130;DHT22;2583;50.946;6.954;2022-12-17T05:26:48;-1.80;99.90
5130;DHT22;2583;50.946;6.954;2022-12-17T05:29:34;-1.80;99.90
5130;DHT22;2583;50.946;6.954;2022-12-17T05:32:19;-1.70;99.90
5130;DHT22;2583;50.946;6.954;2022-12-17T05:35:05;-1.80;99.90
5130;DHT22;2583;50.946;6.954;2022-12-17T05:37:50;-1.80;99.90
5130;DHT22;2583;50.946;6.954;2022-12-17T05:40:36;-2.00;99.90
5130;DHT22;2583;50.946;6.954;2022-12-17T05:43:21;-2.00;99.90
5130;DHT22;2583;50.946;6.954;2022-12-17T05:46:06;-2.00;99.90
5130;DHT22;2583;50.946;6.954;2022-12-17T05:48:52;-1.90;99.90
5130;DHT22;2583;50.946;6.954;2022-12-17T05:51:37;-1.90;99.90
5130;DHT22;2583;50.946;6.954;2022-12-17T05:54:22;-1.90;99.90
5130;DHT22;2583;50.946;6.954;2022-12-17T05:57:08;-1.90;99.90
5130;DHT22;2583;50.946;6.954;2022-12-17T05:59:53;-1.80;99.90
5130;DHT22;2583;50.946;6.954;2022-12-17T06:02:38;-1.90;99.90
5130;DHT22;2583;50.946;6.954;2022-12-17T06:05:24;-1.90;99.90
5130;DHT22;2583;50.946;6.954;2022-12-17T06:08:09;-1.80;99.90
5130;DHT22;2583;50.946;6.954;2022-12-17T06:10:58;-1.80;99.90
5130;DHT22;2583;50.946;6.954;2022-12-17T06:13:43;-1.70;99.90
5130;DHT22;2583;50.946;6.954;2022-12-17T06:16:29;-1.60;99.90
5130;DHT22;2583;50.946;6.954;2022-12-17T06:19:14;-1.70;99.90
5130;DHT22;2583;50.946;6.954;2022-12-17T06:21:59;-1.80;99.90
5130;DHT22;2583;50.946;6.954;2022-12-17T06:24:45;-1.90;99.90
5130;DHT22;2583;50.946;6.954;2022-12-17T06:27:30;-2.10;99.90
5130;DHT22;2583;50.946;6.954;2022-12-17T06:30:16;-2.20;99.90
5130;DHT22;2583;50.946;6.954;2022-12-17T06:33:06;-2.20;99.90
5130;DHT22;2583;50.946;6.954;2022-12-17T06:35:53;-2.30;99.90
5130;DHT22;2583;50.946;6.954;2022-12-17T06:38:47;-2.40;99.90
5130;DHT22;2583;50.946;6.954;2022-12-17T06:41:33;-2.30;99.90
5130;DHT22;2583;50.946;6.954;2022-12-17T06:44:28;-2.30;99.90
5130;DHT22;2583;50.946;6.954;2022-12-17T06:47:14;-2.30;99.90
5130;DHT22;2583;50.946;6.954;2022-12-17T06:49:59;-2.40;99.90
5130;DHT22;2583;50.946;6.954;2022-12-17T06:52:45;-2.40;99.90
5130;DHT22;2583;50.946;6.954;2022-12-17T06:55:30;-2.40;99.90
5130;DHT22;2583;50.946;6.954;2022-12-17T06:58:15;-2.40;99.90
5130;DHT22;2583;50.946;6.954;2022-12-17T07:01:01;-2.50;99.90
5130;DHT22;2583;50.946;6.954;2022-12-17T07:03:46;-2.50;99.90
5130;DHT22;2583;50.946;6.954;2022-12-17T07:06:32;-2.50;99.90
5130;DHT22;2583;50.946;6.954;2022-12-17T07:09:25;-2.60;99.90
5130;DHT22;2583;50.946;6.954;2022-12-17T07:12:10;-2.70;99.90
5130;DHT22;2583;50.946;6.954;2022-12-17T07:14:56;-2.80;99.90
5130;DHT22;2583;50.946;6.954;2022-12-17T07:17:41;-2.90;99.90
5130;DHT22;2583;50.946;6.954;2022-12-17T07:20:26;-2.90;99.90
5130;DHT22;2583;50.946;6.954;2022-12-17T07:23:12;-2.90;99.90
5130;DHT22;2583;50.946;6.954;2022-12-17T07:25:57;-2.90;99.90
5130;DHT22;2583;50.946;6.954;2022-12-17T07:28:42;-3.00;99.90
5130;DHT22;2583;50.946;6.954;2022-12-17T07:31:28;-3.10;99.90
5130;DHT22;2583;50.946;6.954;2022-12-17T07:34:13;-3.10;99.90
5130;DHT22;2583;50.946;6.954;2022-12-17T07:36:58;-3.20;99.90
5130;DHT22;2583;50.946;6.954;2022-12-17T07:39:46;-3.20;99.90
5130;DHT22;2583;50.946;6.954;2022-12-17T07:42:32;-3.20;99.90
5130;DHT22;2583;50.946;6.954;2022-12-17T07:45:17;-3.20;99.90
5130;DHT22;2583;50.946;6.954;2022-12-17T07:48:03;-3.30;99.90
5130;DHT22;2583;50.946;6.954;2022-12-17T07:50:49;-3.30;99.90
5130;DHT22;2583;50.946;6.954;2022-12-17T07:53:45;-3.30;99.90
5130;DHT22;2583;50.946;6.954;2022-12-17T07:56:30;-3.40;99.90
5130;DHT22;2583;50.946;6.954;2022-12-17T07:59:16;-3.30;99.90
5130;DHT22;2583;50.946;6.954;2022-12-17T08:02:01;-3.30;99.90
5130;DHT22;2583;50.946;6.954;2022-12-17T08:04:47;-3.30;99.90
5130;DHT22;2583;50.946;6.954;2022-12-17T08:07:32;-3.20;99.90
5130;DHT22;2583;50.946;6.954;2022-12-17T08:10:17;-3.20;99.90
5130;DHT22;2583;50.946;6.954;2022-12-17T08:13:04;-3.10;99.90
5130;DHT22;2583;50.946;6.954;2022-12-17T08:15:52;-3.20;99.90
5130;DHT22;2583;50.946;6.954;2022-12-17T08:18:37;-3.10;99.90
5130;DHT22;2583;50.946;6.954;2022-12-17T08:21:22;-3.00;99.90
5130;DHT22;2583;50.946;6.954;2022-12-17T08:24:08;-3.00;99.90
5130;DHT22;2583;50.946;6.954;2022-12-17T08:26:54;-2.80;99.90
5130;DHT22;2583;50.946;6.954;2022-12-17T08:29:40;-2.80;99.90
5130;DHT22;2583;50.946;6.954;2022-12-17T08:32:25;-2.70;99.90
5130;DHT22;2583;50.946;6.954;2022-12-17T08:35:10;-2.70;99.90
5130;DHT22;2583;50.946;6.954;2022-12-17T08:38:05;-2.60;99.90
5130;DHT22;2583;50.946;6.954;2022-12-17T08:40:51;-2.50;99.90
5130;DHT22;2583;50.946;6.954;2022-12-17T08:43:36;-2.50;99.90
5130;DHT22;2583;50.946;6.954;2022-12-17T08:46:21;-2.40;99.90
5130;DHT22;2583;50.946;6.954;2022-12-17T08:49:07;-2.40;99.90
5130;DHT22;2583;50.946;6.954;2022-12-17T08:51:53;-2.40;99.90
5130;DHT22;2583;50.946;6.954;2022-12-17T08:54:38;-2.40;99.90
5130;DHT22;2583;50.946;6.954;2022-12-17T08:57:24;-2.40;99.90
5130;DHT22;2583;50.946;6.954;2022-12-17T09:00:09;-2.40;99.90
5130;DHT22;2583;50.946;6.954;2022-12-17T09:02:59;-2.40;99.90
5130;DHT22;2583;50.946;6.954;2022-12-17T09:05:45;-2.30;99.90
5130;DHT22;2583;50.946;6.954;2022-12-17T09:08:31;-2.20;99.90
5130;DHT22;2583;50.946;6.954;2022-12-17T09:11:16;-2.20;99.90
5130;DHT22;2583;50.946;6.954;2022-12-17T09:14:13;-2.30;99.90
5130;DHT22;2583;50.946;6.954;2022-12-17T09:16:58;-2.40;99.90
5130;DHT22;2583;50.946;6.954;2022-12-17T09:19:43;-2.40;99.90
5130;DHT22;2583;50.946;6.954;2022-12-17T09:22:29;-2.50;99.90
5130;DHT22;2583;50.946;6.954;2022-12-17T09:25:14;-2.50;99.90
5130;DHT22;2583;50.946;6.954;2022-12-17T09:28:02;-2.50;99.90
5130;DHT22;2583;50.946;6.954;2022-12-17T09:30:48;-2.50;99.90
5130;DHT22;2583;50.946;6.954;2022-12-17T09:33:34;-2.60;99.90
5130;DHT22;2583;50.946;6.954;2022-12-17T09:36:19;-2.60;99.90
5130;DHT22;2583;50.946;6.954;2022-12-17T09:39:05;-2.70;99.90
5130;DHT22;2583;50.946;6.954;2022-12-17T09:50:28;-2.60;99.90
5130;DHT22;2583;50.946;6.954;2022-12-17T09:53:21;-2.60;99.90
5130;DHT22;2583;50.946;6.954;2022-12-17T09:56:09;-2.50;99.90
5130;DHT22;2583;50.946;6.954;2022-12-17T09:58:56;-2.50;99.90
5130;DHT22;2583;50.946;6.954;2022-12-17T10:01:42;-2.50;99.90
5130;DHT22;2583;50.946;6.954;2022-12-17T10:04:39;-2.50;99.90
5130;DHT22;2583;50.946;6.954;2022-12-17T10:07:34;-2.60;99.90
5130;DHT22;2583;50.946;6.954;2022-12-17T10:10:29;-2.60;99.90
5130;DHT22;2583;50.946;6.954;2022-12-17T10:13:17;-2.50;99.90
5130;DHT22;2583;50.946;6.954;2022-12-17T10:16:33;-2.50;99.90
5130;DHT22;2583;50.946;6.954;2022-12-17T10:19:37;-2.50;99.90
5130;DHT22;2583;50.946;6.954;2022-12-17T10:22:23;-2.30;99.90
5130;DHT22;2583;50.946;6.954;2022-12-17T10:25:18;-2.20;99.90
5130;DHT22;2583;50.946;6.954;2022-12-17T10:28:12;-2.30;99.90
5130;DHT22;2583;50.946;6.954;2022-12-17T10:30:59;-2.20;99.90
5130;DHT22;2583;50.946;6.954;2022-12-17T10:33:46;-2.20;99.90
5130;DHT22;2583;50.946;6.954;2022-12-17T10:36:31;-2.20;99.90
5130;DHT22;2583;50.946;6.954;2022-12-17T10:39:22;-2.30;99.90
5130;DHT22;2583;50.946;6.954;2022-12-17T10:42:25;-2.30;99.90
5130;DHT22;2583;50.946;6.954;2022-12-17T10:45:32;-2.30;99.90
5130;DHT22;2583;50.946;6.954;2022-12-17T10:48:21;-2.30;99.90
5130;DHT22;2583;50.946;6.954;2022-12-17T10:51:25;-2.30;99.90
5130;DHT22;2583;50.946;6.954;2022-12-17T10:54:25;-2.30;99.90
5130;DHT22;2583;50.946;6.954;2022-12-17T10:57:41;-2.30;99.90
5130;DHT22;2583;50.946;6.954;2022-12-17T11:00:35;-2.10;99.90
5130;DHT22;2583;50.946;6.954;2022-12-17T11:06:17;-2.10;99.90
5130;DHT22;2583;50.946;6.954;2022-12-17T11:09:16;-2.00;99.90
5130;DHT22;2583;50.946;6.954;2022-12-17T11:12:07;-1.80;99.90
5130;DHT22;2583;50.946;6.954;2022-12-17T11:15:05;-1.70;99.90
5130;DHT22;2583;50.946;6.954;2022-12-17T11:17:51;-1.60;99.90
5130;DHT22;2583;50.946;6.954;2022-12-17T11:20:48;-1.70;99.90
5130;DHT22;2583;50.946;6.954;2022-12-17T11:23:36;-1.60;99.90
5130;DHT22;2583;50.946;6.954;2022-12-17T11:26:30;-1.70;99.90
5130;DHT22;2583;50.946;6.954;2022-12-17T11:29:18;-1.70;99.90
5130;DHT22;2583;50.946;6.954;2022-12-17T11:32:51;-1.70;99.90
5130;DHT22;2583;50.946;6.954;2022-12-17T11:38:44;-1.70;99.90
5130;DHT22;2583;50.946;6.954;2022-12-17T11:48:07;-1.70;99.90
5130;DHT22;2583;50.946;6.954;2022-12-17T12:00:18;-1.50;99.90
5130;DHT22;2583;50.946;6.954;2022-12-17T12:13:26;-1.20;99.70
5130;DHT22;2583;50.946;6.954;2022-12-17T12:16:21;-1.00;99.10
5130;DHT22;2583;50.946;6.954;2022-12-17T12:19:45;-0.90;99.70
5130;DHT22;2583;50.946;6.954;2022-12-17T12:23:04;-0.80;98.50
5130;DHT22;2583;50.946;6.954;2022-12-17T12:26:07;-0.80;99.60
5130;DHT22;2583;50.946;6.954;2022-12-17T12:32:12;-0.60;98.00
5130;DHT22;2583;50.946;6.954;2022-12-17T12:35:02;-0.50;94.90
5130;DHT22;2583;50.946;6.954;2022-12-17T12:37:48;-0.40;95.70
5130;DHT22;2583;50.946;6.954;2022-12-17T12:41:01;-0.30;93.90
5130;DHT22;2583;50.946;6.954;2022-12-17T12:43:53;-0.30;93.50
5130;DHT22;2583;50.946;6.954;2022-12-17T12:46:41;-0.10;93.40
5130;DHT22;2583;50.946;6.954;2022-12-17T12:52:23;-0.10;91.40
5130;DHT22;2583;50.946;6.954;2022-12-17T12:55:11;-0.20;92.50
5130;DHT22;2583;50.946;6.954;2022-12-17T12:57:59;-0.10;92.40
5130;DHT22;2583;50.946;6.954;2022-12-17T13:12:30;0.30;86.70
5130;DHT22;2583;50.946;6.954;2022-12-17T13:14:58;0.40;86.30
5130;DHT22;2583;50.946;6.954;2022-12-17T13:17:36;0.50;82.90
5130;DHT22;2583;50.946;6.954;2022-12-17T13:20:24;0.60;81.60
5130;DHT22;2583;50.946;6.954;2022-12-17T13:23:04;0.80;74.10
5130;DHT22;2583;50.946;6.954;2022-12-17T13:25:31;0.70;73.60
5130;DHT22;2583;50.946;6.954;2022-12-17T13:27:58;0.60;74.70
5130;DHT22;2583;50.946;6.954;2022-12-17T13:30:35;0.60;73.80
5130;DHT22;2583;50.946;6.954;2022-12-17T13:33:33;0.80;72.40
5130;DHT22;2583;50.946;6.954;2022-12-17T13:36:37;1.00;69.50
5130;DHT22;2583;50.946;6.954;2022-12-17T13:39:30;1.20;62.50
5130;DHT22;2583;50.946;6.954;2022-12-17T13:41:59;1.30;58.70
5130;DHT22;2583;50.946;6.954;2022-12-17T13:44:39;1.20;56.50
5130;DHT22;2583;50.946;6.954;2022-12-17T13:47:27;1.30;56.70
5130;DHT22;2583;50.946;6.954;2022-12-17T13:49:56;1.20;56.60
5130;DHT22;2583;50.946;6.954;2022-12-17T13:52:43;1.10;57.30
5130;DHT22;2583;50.946;6.954;2022-12-17T13:55:18;0.90;59.10
5130;DHT22;2583;50.946;6.954;2022-12-17T13:57:47;0.70;63.00
5130;DHT22;2583;50.946;6.954;2022-12-17T14:00:29;0.60;66.90
5130;DHT22;2583;50.946;6.954;2022-12-17T14:02:56;0.60;71.70
5130;DHT22;2583;50.946;6.954;2022-12-17T14:05:28;0.60;71.50
5130;DHT22;2583;50.946;6.954;2022-12-17T14:08:01;0.60;71.90
5130;DHT22;2583;50.946;6.954;2022-12-17T14:10:29;0.60;70.00
5130;DHT22;2583;50.946;6.954;2022-12-17T14:13:08;0.60;72.30
5130;DHT22;2583;50.946;6.954;2022-12-17T14:15:47;0.60;73.70
5130;DHT22;2583;50.946;6.954;2022-12-17T14:18:17;0.60;73.30
5130;DHT22;2583;50.946;6.954;2022-12-17T14:20:47;0.70;73.50
5130;DHT22;2583;50.946;6.954;2022-12-17T14:23:28;0.90;72.90
5130;DHT22;2583;50.946;6.954;2022-12-17T14:25:56;0.90;68.10
5130;DHT22;2583;50.946;6.954;2022-12-17T14:28:32;0.70;70.30
5130;DHT22;2583;50.946;6.954;2022-12-17T14:31:14;0.50;75.70
5130;DHT22;2583;50.946;6.954;2022-12-17T14:34:01;0.40;77.40
5130;DHT22;2583;50.946;6.954;2022-12-17T14:36:40;0.20;82.70
5130;DHT22;2583;50.946;6.954;2022-12-17T14:39:20;0.00;88.70
5130;DHT22;2583;50.946;6.954;2022-12-17T14:41:49;-0.10;91.90
5130;DHT22;2583;50.946;6.954;2022-12-17T14:44:37;-0.10;93.80
5130;DHT22;2583;50.946;6.954;2022-12-17T14:54:53;-0.40;96.60
5130;DHT22;2583;50.946;6.954;2022-12-17T14:57:21;-0.40;97.30
5130;DHT22;2583;50.946;6.954;2022-12-17T14:59:48;-0.40;98.20
5130;DHT22;2583;50.946;6.954;2022-12-17T15:04:43;-0.30;98.10
5130;DHT22;2583;50.946;6.954;2022-12-17T15:07:13;-0.30;98.10
5130;DHT22;2583;50.946;6.954;2022-12-17T15:09:43;-0.40;99.20
5130;DHT22;2583;50.946;6.954;2022-12-17T15:12:10;-0.50;99.80
5130;DHT22;2583;50.946;6.954;2022-12-17T15:14:37;-0.50;99.90
5130;DHT22;2583;50.946;6.954;2022-12-17T15:17:04;-0.60;99.70
5130;DHT22;2583;50.946;6.954;2022-12-17T15:19:31;-0.60;99.90
5130;DHT22;2583;50.946;6.954;2022-12-17T15:21:58;-0.50;99.20
5130;DHT22;2583;50.946;6.954;2022-12-17T15:24:25;-0.50;99.90
5130;DHT22;2583;50.946;6.954;2022-12-17T15:26:52;-0.60;99.90
5130;DHT22;2583;50.946;6.954;2022-12-17T15:29:19;-0.60;99.90
5130;DHT22;2583;50.946;6.954;2022-12-17T15:31:46;-0.70;99.90
5130;DHT22;2583;50.946;6.954;2022-12-17T15:34:13;-0.80;99.90
5130;DHT22;2583;50.946;6.954;2022-12-17T15:36:39;-0.80;99.90
5130;DHT22;2583;50.946;6.954;2022-12-17T15:39:06;-0.80;99.90
5130;DHT22;2583;50.946;6.954;2022-12-17T15:41:35;-0.80;99.90
5130;DHT22;2583;50.946;6.954;2022-12-17T15:44:20;-0.90;99.90
5130;DHT22;2583;50.946;6.954;2022-12-17T15:46:47;-0.90;99.90
5130;DHT22;2583;50.946;6.954;2022-12-17T15:49:14;-1.00;99.90
5130;DHT22;2583;50.946;6.954;2022-12-17T15:51:40;-1.00;99.90
5130;DHT22;2583;50.946;6.954;2022-12-17T15:54:07;-1.10;99.90
5130;DHT22;2583;50.946;6.954;2022-12-17T15:56:34;-1.10;99.90
5130;DHT22;2583;50.946;6.954;2022-12-17T15:59:02;-1.20;99.90
5130;DHT22;2583;50.946;6.954;2022-12-17T16:01:29;-1.20;99.90
5130;DHT22;2583;50.946;6.954;2022-12-17T16:03:56;-1.20;99.90
5130;DHT22;2583;50.946;6.954;2022-12-17T16:06:23;-1.20;99.90
5130;DHT22;2583;50.946;6.954;2022-12-17T16:08:50;-1.10;99.90
5130;DHT22;2583;50.946;6.954;2022-12-17T16:11:17;-1.10;99.90
5130;DHT22;2583;50.946;6.954;2022-12-17T16:13:43;-1.10;99.90
5130;DHT22;2583;50.946;6.954;2022-12-17T16:16:10;-1.10;99.90
5130;DHT22;2583;50.946;6.954;2022-12-17T16:18:37;-1.20;99.90
5130;DHT22;2583;50.946;6.954;2022-12-17T16:21:06;-1.30;99.90
5130;DHT22;2583;50.946;6.954;2022-12-17T16:23:34;-1.30;99.90
5130;DHT22;2583;50.946;6.954;2022-12-17T16:26:02;-1.30;99.90
5130;DHT22;2583;50.946;6.954;2022-12-17T16:28:29;-1.30;99.90
5130;DHT22;2583;50.946;6.954;2022-12-17T16:31:07;-1.40;99.90
5130;DHT22;2583;50.946;6.954;2022-12-17T16:33:36;-1.40;99.90
5130;DHT22;2583;50.946;6.954;2022-12-17T16:36:04;-1.40;99.90
5130;DHT22;2583;50.946;6.954;2022-12-17T16:38:32;-1.40;99.90
5130;DHT22;2583;50.946;6.954;2022-12-17T16:41:01;-1.50;99.90
5130;DHT22;2583;50.946;6.954;2022-12-17T16:43:32;-1.50;99.90
5130;DHT22;2583;50.946;6.954;2022-12-17T16:45:59;-1.50;99.90
5130;DHT22;2583;50.946;6.954;2022-12-17T16:48:26;-1.60;99.90
5130;DHT22;2583;50.946;6.954;2022-12-17T16:50:53;-1.60;99.90
5130;DHT22;2583;50.946;6.954;2022-12-17T16:53:19;-1.70;99.90
5130;DHT22;2583;50.946;6.954;2022-12-17T16:55:48;-1.70;99.90
5130;DHT22;2583;50.946;6.954;2022-12-17T16:58:16;-1.60;99.90
5130;DHT22;2583;50.946;6.954;2022-12-17T17:00:43;-1.60;99.90
5130;DHT22;2583;50.946;6.954;2022-12-17T17:03:11;-1.70;99.90
5130;DHT22;2583;50.946;6.954;2022-12-17T17:05:39;-1.60;99.90
5130;DHT22;2583;50.946;6.954;2022-12-17T17:08:06;-1.70;99.90
5130;DHT22;2583;50.946;6.954;2022-12-17T17:10:35;-1.70;99.90
5130;DHT22;2583;50.946;6.954;2022-12-17T17:13:02;-1.80;99.90
5130;DHT22;2583;50.946;6.954;2022-12-17T17:15:29;-1.80;99.90
5130;DHT22;2583;50.946;6.954;2022-12-17T17:17:56;-1.80;99.90
5130;DHT22;2583;50.946;6.954;2022-12-17T17:20:27;-1.80;99.90
5130;DHT22;2583;50.946;6.954;2022-12-17T17:22:58;-1.80;99.90
5130;DHT22;2583;50.946;6.954;2022-12-17T17:25:25;-1.90;99.90
5130;DHT22;2583;50.946;6.954;2022-12-17T17:28:12;-1.90;99.90
5130;DHT22;2583;50.946;6.954;2022-12-17T17:30:39;-1.90;99.90
5130;DHT22;2583;50.946;6.954;2022-12-17T17:33:05;-2.00;99.90
5130;DHT22;2583;50.946;6.954;2022-12-17T17:35:32;-2.00;99.90
5130;DHT22;2583;50.946;6.954;2022-12-17T17:37:59;-2.00;99.90
5130;DHT22;2583;50.946;6.954;2022-12-17T17:40:26;-2.00;99.90
5130;DHT22;2583;50.946;6.954;2022-12-17T17:42:53;-2.00;99.90
5130;DHT22;2583;50.946;6.954;2022-12-17T17:45:20;-2.10;99.90
5130;DHT22;2583;50.946;6.954;2022-12-17T17:47:46;-2.10;99.90
5130;DHT22;2583;50.946;6.954;2022-12-17T17:50:13;-2.10;99.90
5130;DHT22;2583;50.946;6.954;2022-12-17T17:52:40;-2.20;99.90
5130;DHT22;2583;50.946;6.954;2022-12-17T17:55:07;-2.20;99.90
5130;DHT22;2583;50.946;6.954;2022-12-17T17:57:33;-2.20;99.90
5130;DHT22;2583;50.946;6.954;2022-12-17T18:00:00;-2.20;99.90
5130;DHT22;2583;50.946;6.954;2022-12-17T18:02:28;-2.30;99.90
5130;DHT22;2583;50.946;6.954;2022-12-17T18:04:55;-2.30;99.90
5130;DHT22;2583;50.946;6.954;2022-12-17T18:07:21;-2.30;99.90
5130;DHT22;2583;50.946;6.954;2022-12-17T18:09:52;-2.40;99.90
5130;DHT22;2583;50.946;6.954;2022-12-17T18:12:19;-2.30;99.90
5130;DHT22;2583;50.946;6.954;2022-12-17T18:15:05;-2.40;99.90
5130;DHT22;2583;50.946;6.954;2022-12-17T18:17:49;-2.40;99.90
5130;DHT22;2583;50.946;6.954;2022-12-17T18:20:17;-2.40;99.90
5130;DHT22;2583;50.946;6.954;2022-12-17T18:22:44;-2.40;99.90
5130;DHT22;2583;50.946;6.954;2022-12-17T18:25:11;-2.40;99.90
5130;DHT22;2583;50.946;6.954;2022-12-17T18:27:38;-2.40;99.90
5130;DHT22;2583;50.946;6.954;2022-12-17T18:30:05;-2.50;99.90
5130;DHT22;2583;50.946;6.954;2022-12-17T18:32:32;-2.50;99.90
5130;DHT22;2583;50.946;6.954;2022-12-17T18:34:59;-2.40;99.90
5130;DHT22;2583;50.946;6.954;2022-12-17T18:37:26;-2.50;99.90
5130;DHT22;2583;50.946;6.954;2022-12-17T18:39:52;-2.50;99.90
5130;DHT22;2583;50.946;6.954;2022-12-17T18:42:19;-2.50;99.90
5130;DHT22;2583;50.946;6.954;2022-12-17T18:45:05;-2.50;99.90
5130;DHT22;2583;50.946;6.954;2022-12-17T18:47:32;-2.50;99.90
5130;DHT22;2583;50.946;6.954;2022-12-17T18:49:58;-2.60;99.90
5130;DHT22;2583;50.946;6.954;2022-12-17T18:52:25;-2.60;99.90
5130;DHT22;2583;50.946;6.954;2022-12-17T18:54:52;-2.60;99.90
5130;DHT22;2583;50.946;6.954;2022-12-17T18:57:18;-2.60;99.90
5130;DHT22;2583;50.946;6.954;2022-12-17T18:59:45;-2.60;99.90
5130;DHT22;2583;50.946;6.954;2022-12-17T19:02:13;-2.60;99.90
5130;DHT22;2583;50.946;6.954;2022-12-17T19:04:41;-2.60;99.90
5130;DHT22;2583;50.946;6.954;2022-12-17T19:07:08;-2.60;99.90